sensor_id;sensor_type;location;lat;lon;timestamp;temperature;humidity
4795;DHT22;2411;47.060;15.064;2023-06-26T00:01:42;14.90;1.00
4795;DHT22;2411;47.060;15.064;2023-06-26T00:04:10;15.00;1.00
4795;DHT22;2411;47.060;15.064;2023-06-26T00:06:42;15.00;1.00
4795;DHT22;2411;47.060;15.064;2023-06-26T00:09:09;15.00;1.00
4795;DHT22;2411;47.060;15.064;2023-06-26T00:11:37;15.00;1.00
4795;DHT22;2411;47.060;15.064;2023-06-26T00:14:04;15.00;1.00
4795;DHT22;2411;47.060;15.064;2023-06-26T00:16:31;14.90;1.00
4795;DHT22;2411;47.060;15.064;2023-06-26T00:18:59;14.90;1.00
4795;DHT22;2411;47.060;15.064;2023-06-26T00:21:26;14.90;1.00
4795;DHT22;2411;47.060;15.064;2023-06-26T00:23:54;14.90;1.00
4795;DHT22;2411;47.060;15.064;2023-06-26T00:26:21;14.90;1.00
4795;DHT22;2411;47.060;15.064;2023-06-26T00:28:50;14.70;1.00
4795;DHT22;2411;47.060;15.064;2023-06-26T00:31:17;14.50;1.00
4795;DHT22;2411;47.060;15.064;2023-06-26T00:33:45;14.60;1.00
4795;DHT22;2411;47.060;15.064;2023-06-26T00:36:12;14.50;1.00
4795;DHT22;2411;47.060;15.064;2023-06-26T00:38:40;14.50;1.00
4795;DHT22;2411;47.060;15.064;2023-06-26T00:41:07;14.50;1.00
4795;DHT22;2411;47.060;15.064;2023-06-26T00:43:40;14.50;1.00
4795;DHT22;2411;47.060;15.064;2023-06-26T00:46:13;14.40;1.00
4795;DHT22;2411;47.060;15.064;2023-06-26T00:48:42;14.30;3.00
4795;DHT22;2411;47.060;15.064;2023-06-26T00:51:12;14.30;1.90
4795;DHT22;2411;47.060;15.064;2023-06-26T00:53:40;14.40;2.20
4795;DHT22;2411;47.060;15.064;2023-06-26T00:56:08;14.40;1.60
4795;DHT22;2411;47.060;15.064;2023-06-26T00:58:35;14.40;1.80
4795;DHT22;2411;47.060;15.064;2023-06-26T01:01:03;14.40;1.00
4795;DHT22;2411;47.060;15.064;2023-06-26T01:03:32;14.30;2.60
4795;DHT22;2411;47.060;15.064;2023-06-26T01:06:00;14.40;1.00
4795;DHT22;2411;47.060;15.064;2023-06-26T01:08:29;14.40;1.00
4795;DHT22;2411;47.060;15.064;2023-06-26T01:10:56;14.30;1.00
4795;DHT22;2411;47.060;15.064;2023-06-26T01:13:24;14.20;2.70
4795;DHT22;2411;47.060;15.064;2023-06-26T01:15:51;14.20;7.70
4795;DHT22;2411;47.060;15.064;2023-06-26T01:18:19;14.20;6.30
4795;DHT22;2411;47.060;15.064;2023-06-26T01:20:47;14.20;4.40
4795;DHT22;2411;47.060;15.064;2023-06-26T01:23:24;14.20;4.50
4795;DHT22;2411;47.060;15.064;2023-06-26T01:26:11;14.30;1.90
4795;DHT22;2411;47.060;15.064;2023-06-26T01:28:41;14.40;1.00
4795;DHT22;2411;47.060;15.064;2023-06-26T01:31:10;14.20;3.70
4795;DHT22;2411;47.060;15.064;2023-06-26T01:33:39;14.10;5.00
4795;DHT22;2411;47.060;15.064;2023-06-26T01:36:07;14.10;7.00
4795;DHT22;2411;47.060;15.064;2023-06-26T01:38:35;14.10;7.00
4795;DHT22;2411;47.060;15.064;2023-06-26T01:41:04;14.00;6.00
4795;DHT22;2411;47.060;15.064;2023-06-26T01:46:30;13.90;19.60
4795;DHT22;2411;47.060;15.064;2023-06-26T01:55:09;13.90;20.30
4795;DHT22;2411;47.060;15.064;2023-06-26T01:57:38;13.90;13.90
4795;DHT22;2411;47.060;15.064;2023-06-26T02:00:06;13.90;12.60
4795;DHT22;2411;47.060;15.064;2023-06-26T02:02:37;13.90;28.10
4795;DHT22;2411;47.060;15.064;2023-06-26T02:05:05;13.70;14.20
4795;DHT22;2411;47.060;15.064;2023-06-26T02:07:32;13.70;22.10
4795;DHT22;2411;47.060;15.064;2023-06-26T02:09:59;13.70;23.10
4795;DHT22;2411;47.060;15.064;2023-06-26T02:12:27;13.70;19.20
4795;DHT22;2411;47.060;15.064;2023-06-26T02:14:54;13.70;20.30
4795;DHT22;2411;47.060;15.064;2023-06-26T02:17:22;13.80;17.50
4795;DHT22;2411;47.060;15.064;2023-06-26T02:19:49;13.70;16.80
4795;DHT22;2411;47.060;15.064;2023-06-26T02:22:16;13.80;15.80
4795;DHT22;2411;47.060;15.064;2023-06-26T02:24:44;13.70;16.50
4795;DHT22;2411;47.060;15.064;2023-06-26T02:27:11;13.70;15.60
4795;DHT22;2411;47.060;15.064;2023-06-26T02:29:40;13.70;15.30
4795;DHT22;2411;47.060;15.064;2023-06-26T02:32:08;13.80;12.90
4795;DHT22;2411;47.060;15.064;2023-06-26T02:34:36;13.80;11.90
4795;DHT22;2411;47.060;15.064;2023-06-26T02:37:03;13.90;9.20
4795;DHT22;2411;47.060;15.064;2023-06-26T02:39:31;14.00;5.20
4795;DHT22;2411;47.060;15.064;2023-06-26T02:41:58;14.10;1.00
4795;DHT22;2411;47.060;15.064;2023-06-26T02:44:25;14.20;1.00
4795;DHT22;2411;47.060;15.064;2023-06-26T02:46:52;14.20;1.00
4795;DHT22;2411;47.060;15.064;2023-06-26T02:49:20;14.10;8.30
4795;DHT22;2411;47.060;15.064;2023-06-26T02:51:49;14.00;17.70
4795;DHT22;2411;47.060;15.064;2023-06-26T02:54:17;13.90;6.40
4795;DHT22;2411;47.060;15.064;2023-06-26T02:56:44;13.70;9.30
4795;DHT22;2411;47.060;15.064;2023-06-26T02:59:14;13.80;5.80
4795;DHT22;2411;47.060;15.064;2023-06-26T03:01:42;13.80;6.80
4795;DHT22;2411;47.060;15.064;2023-06-26T03:04:09;13.60;12.80
4795;DHT22;2411;47.060;15.064;2023-06-26T03:06:55;13.50;16.00
4795;DHT22;2411;47.060;15.064;2023-06-26T03:09:25;13.50;18.90
4795;DHT22;2411;47.060;15.064;2023-06-26T03:11:53;13.40;25.10
4795;DHT22;2411;47.060;15.064;2023-06-26T03:14:22;13.50;52.40
4795;DHT22;2411;47.060;15.064;2023-06-26T03:16:49;13.50;53.10
4795;DHT22;2411;47.060;15.064;2023-06-26T03:19:20;13.50;41.20
4795;DHT22;2411;47.060;15.064;2023-06-26T03:21:47;13.50;30.90
4795;DHT22;2411;47.060;15.064;2023-06-26T03:24:14;13.50;29.40
4795;DHT22;2411;47.060;15.064;2023-06-26T03:26:42;13.60;28.00
4795;DHT22;2411;47.060;15.064;2023-06-26T03:29:09;13.70;20.80
4795;DHT22;2411;47.060;15.064;2023-06-26T03:31:36;13.80;15.30
4795;DHT22;2411;47.060;15.064;2023-06-26T03:34:04;13.90;13.30
4795;DHT22;2411;47.060;15.064;2023-06-26T03:36:31;13.80;16.10
4795;DHT22;2411;47.060;15.064;2023-06-26T03:38:59;13.80;16.00
4795;DHT22;2411;47.060;15.064;2023-06-26T03:41:27;13.80;11.70
4795;DHT22;2411;47.060;15.064;2023-06-26T03:43:54;13.80;13.90
4795;DHT22;2411;47.060;15.064;2023-06-26T03:46:23;13.80;11.00
4795;DHT22;2411;47.060;15.064;2023-06-26T03:48:52;13.90;8.80
4795;DHT22;2411;47.060;15.064;2023-06-26T03:51:19;13.80;11.40
4795;DHT22;2411;47.060;15.064;2023-06-26T03:53:46;13.90;9.80
4795;DHT22;2411;47.060;15.064;2023-06-26T03:56:14;13.90;9.50
4795;DHT22;2411;47.060;15.064;2023-06-26T03:58:41;14.00;6.40
4795;DHT22;2411;47.060;15.064;2023-06-26T04:01:09;14.10;5.70
4795;DHT22;2411;47.060;15.064;2023-06-26T04:03:36;14.10;5.80
4795;DHT22;2411;47.060;15.064;2023-06-26T04:06:03;14.20;5.40
4795;DHT22;2411;47.060;15.064;2023-06-26T04:08:31;14.20;4.70
4795;DHT22;2411;47.060;15.064;2023-06-26T04:10:58;14.30;4.60
4795;DHT22;2411;47.060;15.064;2023-06-26T04:13:26;14.40;3.70
4795;DHT22;2411;47.060;15.064;2023-06-26T04:15:53;14.40;1.70
4795;DHT22;2411;47.060;15.064;2023-06-26T04:18:20;14.40;2.10
4795;DHT22;2411;47.060;15.064;2023-06-26T04:21:10;14.50;1.40
4795;DHT22;2411;47.060;15.064;2023-06-26T04:23:39;14.70;1.00
4795;DHT22;2411;47.060;15.064;2023-06-26T04:26:08;14.70;1.00
4795;DHT22;2411;47.060;15.064;2023-06-26T04:28:36;14.80;1.00
4795;DHT22;2411;47.060;15.064;2023-06-26T04:31:03;14.90;1.00
4795;DHT22;2411;47.060;15.064;2023-06-26T04:33:31;14.90;1.00
4795;DHT22;2411;47.060;15.064;2023-06-26T04:35:58;15.00;1.00
4795;DHT22;2411;47.060;15.064;2023-06-26T04:38:32;15.10;1.00
4795;DHT22;2411;47.060;15.064;2023-06-26T04:41:00;15.20;1.00
4795;DHT22;2411;47.060;15.064;2023-06-26T04:43:28;15.30;1.00
4795;DHT22;2411;47.060;15.064;2023-06-26T04:45:56;15.40;1.00
4795;DHT22;2411;47.060;15.064;2023-06-26T04:48:23;15.40;1.00
4795;DHT22;2411;47.060;15.064;2023-06-26T04:50:51;15.50;1.00
4795;DHT22;2411;47.060;15.064;2023-06-26T04:53:21;15.60;1.00
4795;DHT22;2411;47.060;15.064;2023-06-26T04:55:50;15.80;1.00
4795;DHT22;2411;47.060;15.064;2023-06-26T04:58:19;15.80;1.00
4795;DHT22;2411;47.060;15.064;2023-06-26T05:00:46;16.00;1.00
4795;DHT22;2411;47.060;15.064;2023-06-26T05:03:16;16.10;1.00
4795;DHT22;2411;47.060;15.064;2023-06-26T05:05:44;16.20;1.00
4795;DHT22;2411;47.060;15.064;2023-06-26T05:08:22;16.30;1.00
4795;DHT22;2411;47.060;15.064;2023-06-26T05:10:50;16.50;1.00
4795;DHT22;2411;47.060;15.064;2023-06-26T05:13:17;16.60;1.00
4795;DHT22;2411;47.060;15.064;2023-06-26T05:15:46;16.70;1.00
4795;DHT22;2411;47.060;15.064;2023-06-26T05:18:14;16.90;1.00
4795;DHT22;2411;47.060;15.064;2023-06-26T05:20:42;17.00;1.00
4795;DHT22;2411;47.060;15.064;2023-06-26T05:23:11;17.10;1.00
4795;DHT22;2411;47.060;15.064;2023-06-26T05:25:39;17.30;1.00
4795;DHT22;2411;47.060;15.064;2023-06-26T05:28:07;17.30;1.00
4795;DHT22;2411;47.060;15.064;2023-06-26T05:30:37;17.40;1.00
4795;DHT22;2411;47.060;15.064;2023-06-26T05:33:05;17.50;1.00
4795;DHT22;2411;47.060;15.064;2023-06-26T05:35:34;17.70;1.00
4795;DHT22;2411;47.060;15.064;2023-06-26T05:38:03;17.80;1.00
4795;DHT22;2411;47.060;15.064;2023-06-26T05:40:31;18.00;1.00
4795;DHT22;2411;47.060;15.064;2023-06-26T05:43:17;18.10;1.00
4795;DHT22;2411;47.060;15.064;2023-06-26T05:45:53;18.20;1.00
4795;DHT22;2411;47.060;15.064;2023-06-26T05:48:20;18.40;1.00
4795;DHT22;2411;47.060;15.064;2023-06-26T05:50:48;18.60;1.00
4795;DHT22;2411;47.060;15.064;2023-06-26T05:53:15;18.80;1.00
4795;DHT22;2411;47.060;15.064;2023-06-26T05:55:43;18.90;1.00
4795;DHT22;2411;47.060;15.064;2023-06-26T05:58:11;19.00;1.00
4795;DHT22;2411;47.060;15.064;2023-06-26T06:00:39;19.10;1.00
4795;DHT22;2411;47.060;15.064;2023-06-26T06:03:09;19.20;1.00
4795;DHT22;2411;47.060;15.064;2023-06-26T06:05:37;19.30;1.00
4795;DHT22;2411;47.060;15.064;2023-06-26T06:08:23;19.40;1.00
4795;DHT22;2411;47.060;15.064;2023-06-26T06:10:51;19.50;1.00
4795;DHT22;2411;47.060;15.064;2023-06-26T06:13:18;19.60;1.00
4795;DHT22;2411;47.060;15.064;2023-06-26T06:15:45;19.70;1.00
4795;DHT22;2411;47.060;15.064;2023-06-26T06:18:12;19.80;1.00
4795;DHT22;2411;47.060;15.064;2023-06-26T06:20:40;19.90;1.00
4795;DHT22;2411;47.060;15.064;2023-06-26T06:23:08;20.00;1.00
4795;DHT22;2411;47.060;15.064;2023-06-26T06:25:35;20.10;1.00
4795;DHT22;2411;47.060;15.064;2023-06-26T06:28:03;20.20;1.00
4795;DHT22;2411;47.060;15.064;2023-06-26T06:30:31;20.30;1.00
4795;DHT22;2411;47.060;15.064;2023-06-26T06:33:11;20.40;1.00
4795;DHT22;2411;47.060;15.064;2023-06-26T06:35:38;20.60;11.10
4795;DHT22;2411;47.060;15.064;2023-06-26T06:38:05;20.60;1.00
4795;DHT22;2411;47.060;15.064;2023-06-26T06:40:33;20.70;1.00
4795;DHT22;2411;47.060;15.064;2023-06-26T06:43:00;20.80;1.00
4795;DHT22;2411;47.060;15.064;2023-06-26T06:45:28;20.90;1.00
4795;DHT22;2411;47.060;15.064;2023-06-26T06:47:55;21.00;1.00
4795;DHT22;2411;47.060;15.064;2023-06-26T06:50:23;21.10;1.00
4795;DHT22;2411;47.060;15.064;2023-06-26T06:52:50;21.10;1.00
4795;DHT22;2411;47.060;15.064;2023-06-26T06:55:17;21.20;1.00
4795;DHT22;2411;47.060;15.064;2023-06-26T06:57:45;21.30;1.00
4795;DHT22;2411;47.060;15.064;2023-06-26T07:00:13;21.40;1.00
4795;DHT22;2411;47.060;15.064;2023-06-26T07:02:45;21.60;1.00
4795;DHT22;2411;47.060;15.064;2023-06-26T07:05:13;21.70;1.00
4795;DHT22;2411;47.060;15.064;2023-06-26T07:07:40;21.80;1.00
4795;DHT22;2411;47.060;15.064;2023-06-26T07:10:10;21.90;1.00
4795;DHT22;2411;47.060;15.064;2023-06-26T07:12:38;22.00;1.00
4795;DHT22;2411;47.060;15.064;2023-06-26T07:15:06;22.20;1.00
4795;DHT22;2411;47.060;15.064;2023-06-26T07:17:34;22.30;1.00
4795;DHT22;2411;47.060;15.064;2023-06-26T07:20:02;22.50;12.20
4795;DHT22;2411;47.060;15.064;2023-06-26T07:22:37;22.40;10.50
4795;DHT22;2411;47.060;15.064;2023-06-26T07:25:05;22.40;1.00
4795;DHT22;2411;47.060;15.064;2023-06-26T07:27:40;22.40;1.00
4795;DHT22;2411;47.060;15.064;2023-06-26T07:30:08;22.50;1.00
4795;DHT22;2411;47.060;15.064;2023-06-26T07:32:37;22.60;1.00
4795;DHT22;2411;47.060;15.064;2023-06-26T07:35:05;22.70;1.00
4795;DHT22;2411;47.060;15.064;2023-06-26T07:37:32;22.80;1.00
4795;DHT22;2411;47.060;15.064;2023-06-26T07:39:59;22.90;1.00
4795;DHT22;2411;47.060;15.064;2023-06-26T07:42:27;23.00;1.00
4795;DHT22;2411;47.060;15.064;2023-06-26T07:44:54;23.10;1.00
4795;DHT22;2411;47.060;15.064;2023-06-26T07:47:21;23.20;1.00
4795;DHT22;2411;47.060;15.064;2023-06-26T07:49:49;23.10;1.00
4795;DHT22;2411;47.060;15.064;2023-06-26T07:52:17;23.30;1.00
4795;DHT22;2411;47.060;15.064;2023-06-26T07:54:44;23.30;1.00
4795;DHT22;2411;47.060;15.064;2023-06-26T07:57:12;23.40;1.00
4795;DHT22;2411;47.060;15.064;2023-06-26T07:59:40;23.40;1.00
4795;DHT22;2411;47.060;15.064;2023-06-26T08:02:07;23.50;1.00
4795;DHT22;2411;47.060;15.064;2023-06-26T08:04:34;23.70;1.00
4795;DHT22;2411;47.060;15.064;2023-06-26T08:07:02;23.90;1.00
4795;DHT22;2411;47.060;15.064;2023-06-26T08:09:31;23.90;1.00
4795;DHT22;2411;47.060;15.064;2023-06-26T08:11:59;24.00;1.00
4795;DHT22;2411;47.060;15.064;2023-06-26T08:14:26;24.20;1.00
4795;DHT22;2411;47.060;15.064;2023-06-26T08:16:54;24.30;1.00
4795;DHT22;2411;47.060;15.064;2023-06-26T08:19:21;24.30;1.00
4795;DHT22;2411;47.060;15.064;2023-06-26T08:21:49;24.40;1.00
4795;DHT22;2411;47.060;15.064;2023-06-26T08:24:16;24.40;1.00
4795;DHT22;2411;47.060;15.064;2023-06-26T08:26:45;24.30;1.00
4795;DHT22;2411;47.060;15.064;2023-06-26T08:29:14;24.60;1.00
4795;DHT22;2411;47.060;15.064;2023-06-26T08:31:42;24.80;1.00
4795;DHT22;2411;47.060;15.064;2023-06-26T08:34:10;25.10;1.00
4795;DHT22;2411;47.060;15.064;2023-06-26T08:36:37;25.20;1.00
4795;DHT22;2411;47.060;15.064;2023-06-26T08:39:05;25.20;1.00
4795;DHT22;2411;47.060;15.064;2023-06-26T08:41:33;25.20;1.00
4795;DHT22;2411;47.060;15.064;2023-06-26T08:44:00;25.40;1.00
4795;DHT22;2411;47.060;15.064;2023-06-26T08:46:28;25.50;1.00
4795;DHT22;2411;47.060;15.064;2023-06-26T08:49:00;25.40;1.00
4795;DHT22;2411;47.060;15.064;2023-06-26T08:51:29;25.50;1.00
4795;DHT22;2411;47.060;15.064;2023-06-26T08:54:02;25.50;1.00
4795;DHT22;2411;47.060;15.064;2023-06-26T08:56:36;25.60;1.00
4795;DHT22;2411;47.060;15.064;2023-06-26T08:59:08;25.80;1.00
4795;DHT22;2411;47.060;15.064;2023-06-26T09:01:38;25.70;1.00
4795;DHT22;2411;47.060;15.064;2023-06-26T09:04:06;25.80;1.00
4795;DHT22;2411;47.060;15.064;2023-06-26T09:06:34;26.00;1.00
4795;DHT22;2411;47.060;15.064;2023-06-26T09:09:02;26.10;1.00
4795;DHT22;2411;47.060;15.064;2023-06-26T09:11:30;26.10;1.00
4795;DHT22;2411;47.060;15.064;2023-06-26T09:13:59;26.30;1.00
4795;DHT22;2411;47.060;15.064;2023-06-26T09:16:26;26.20;1.00
4795;DHT22;2411;47.060;15.064;2023-06-26T09:18:56;26.40;1.00
4795;DHT22;2411;47.060;15.064;2023-06-26T09:21:23;26.50;1.00
4795;DHT22;2411;47.060;15.064;2023-06-26T09:23:53;26.70;1.00
4795;DHT22;2411;47.060;15.064;2023-06-26T09:26:24;26.70;1.00
4795;DHT22;2411;47.060;15.064;2023-06-26T09:28:52;26.90;1.00
4795;DHT22;2411;47.060;15.064;2023-06-26T09:31:20;27.10;1.00
4795;DHT22;2411;47.060;15.064;2023-06-26T09:34:07;27.20;1.00
4795;DHT22;2411;47.060;15.064;2023-06-26T09:36:35;27.10;1.00
4795;DHT22;2411;47.060;15.064;2023-06-26T09:39:07;27.10;1.00
4795;DHT22;2411;47.060;15.064;2023-06-26T09:41:41;27.40;1.00
4795;DHT22;2411;47.060;15.064;2023-06-26T09:44:11;27.60;1.00
4795;DHT22;2411;47.060;15.064;2023-06-26T09:46:38;27.60;1.00
4795;DHT22;2411;47.060;15.064;2023-06-26T09:49:07;27.80;1.30
4795;DHT22;2411;47.060;15.064;2023-06-26T09:51:36;27.60;1.00
4795;DHT22;2411;47.060;15.064;2023-06-26T09:54:05;27.80;1.00
4795;DHT22;2411;47.060;15.064;2023-06-26T09:56:33;27.60;1.00
4795;DHT22;2411;47.060;15.064;2023-06-26T09:59:03;27.70;1.00
4795;DHT22;2411;47.060;15.064;2023-06-26T10:01:32;27.70;1.00
4795;DHT22;2411;47.060;15.064;2023-06-26T10:04:00;27.60;3.70
4795;DHT22;2411;47.060;15.064;2023-06-26T10:06:35;27.80;1.00
4795;DHT22;2411;47.060;15.064;2023-06-26T10:09:03;27.70;1.00
4795;DHT22;2411;47.060;15.064;2023-06-26T10:12:02;28.20;1.00
4795;DHT22;2411;47.060;15.064;2023-06-26T10:14:37;27.90;1.00
4795;DHT22;2411;47.060;15.064;2023-06-26T10:17:09;28.30;1.00
4795;DHT22;2411;47.060;15.064;2023-06-26T10:19:43;28.50;1.00
4795;DHT22;2411;47.060;15.064;2023-06-26T10:22:21;28.00;1.00
4795;DHT22;2411;47.060;15.064;2023-06-26T10:24:52;27.90;1.00
4795;DHT22;2411;47.060;15.064;2023-06-26T10:27:23;27.80;1.00
4795;DHT22;2411;47.060;15.064;2023-06-26T10:29:58;28.20;1.00
4795;DHT22;2411;47.060;15.064;2023-06-26T10:32:28;28.40;1.00
4795;DHT22;2411;47.060;15.064;2023-06-26T10:34:56;28.30;1.00
4795;DHT22;2411;47.060;15.064;2023-06-26T10:40:13;29.10;2.00
4795;DHT22;2411;47.060;15.064;2023-06-26T10:42:40;29.00;1.00
4795;DHT22;2411;47.060;15.064;2023-06-26T10:45:14;29.10;2.10
4795;DHT22;2411;47.060;15.064;2023-06-26T10:47:46;29.40;2.70
4795;DHT22;2411;47.060;15.064;2023-06-26T10:53:14;29.20;1.30
4795;DHT22;2411;47.060;15.064;2023-06-26T10:56:03;29.40;1.90
4795;DHT22;2411;47.060;15.064;2023-06-26T11:01:23;29.40;1.00
4795;DHT22;2411;47.060;15.064;2023-06-26T11:04:02;29.70;2.10
4795;DHT22;2411;47.060;15.064;2023-06-26T11:06:31;29.80;3.00
4795;DHT22;2411;47.060;15.064;2023-06-26T11:09:10;29.40;1.00
4795;DHT22;2411;47.060;15.064;2023-06-26T11:11:57;29.30;1.00
4795;DHT22;2411;47.060;15.064;2023-06-26T11:14:26;29.40;1.00
4795;DHT22;2411;47.060;15.064;2023-06-26T11:16:58;29.10;1.00
4795;DHT22;2411;47.060;15.064;2023-06-26T11:19:27;29.30;1.00
4795;DHT22;2411;47.060;15.064;2023-06-26T11:22:03;29.70;1.00
4795;DHT22;2411;47.060;15.064;2023-06-26T11:24:31;29.80;1.00
4795;DHT22;2411;47.060;15.064;2023-06-26T11:27:01;29.90;1.00
4795;DHT22;2411;47.060;15.064;2023-06-26T11:29:30;29.60;1.00
4795;DHT22;2411;47.060;15.064;2023-06-26T11:32:03;29.70;1.00
4795;DHT22;2411;47.060;15.064;2023-06-26T11:34:33;29.20;1.00
4795;DHT22;2411;47.060;15.064;2023-06-26T11:37:20;29.20;1.00
4795;DHT22;2411;47.060;15.064;2023-06-26T11:39:48;29.00;1.00
4795;DHT22;2411;47.060;15.064;2023-06-26T11:42:15;29.30;1.00
4795;DHT22;2411;47.060;15.064;2023-06-26T11:44:43;29.70;1.00
4795;DHT22;2411;47.060;15.064;2023-06-26T11:47:19;29.70;1.00
4795;DHT22;2411;47.060;15.064;2023-06-26T11:49:49;29.70;1.00
4795;DHT22;2411;47.060;15.064;2023-06-26T11:52:16;29.80;1.00
4795;DHT22;2411;47.060;15.064;2023-06-26T11:54:44;30.00;1.00
4795;DHT22;2411;47.060;15.064;2023-06-26T11:57:16;29.70;1.00
4795;DHT22;2411;47.060;15.064;2023-06-26T11:59:44;29.40;1.00
4795;DHT22;2411;47.060;15.064;2023-06-26T12:02:14;29.80;1.00
4795;DHT22;2411;47.060;15.064;2023-06-26T12:04:43;29.80;1.00
4795;DHT22;2411;47.060;15.064;2023-06-26T12:07:12;29.60;1.00
4795;DHT22;2411;47.060;15.064;2023-06-26T12:09:46;29.60;1.00
4795;DHT22;2411;47.060;15.064;2023-06-26T12:12:17;29.70;1.00
4795;DHT22;2411;47.060;15.064;2023-06-26T12:14:45;29.80;1.00
4795;DHT22;2411;47.060;15.064;2023-06-26T12:17:13;30.00;1.00
4795;DHT22;2411;47.060;15.064;2023-06-26T12:19:46;29.70;1.00
4795;DHT22;2411;47.060;15.064;2023-06-26T12:22:18;29.70;1.00
4795;DHT22;2411;47.060;15.064;2023-06-26T12:24:47;29.70;1.00
4795;DHT22;2411;47.060;15.064;2023-06-26T12:27:17;29.80;1.00
4795;DHT22;2411;47.060;15.064;2023-06-26T12:29:54;29.90;1.00
4795;DHT22;2411;47.060;15.064;2023-06-26T12:32:23;29.90;1.00
4795;DHT22;2411;47.060;15.064;2023-06-26T12:34:52;29.80;1.00
4795;DHT22;2411;47.060;15.064;2023-06-26T12:37:20;29.50;1.00
4795;DHT22;2411;47.060;15.064;2023-06-26T12:39:55;29.70;1.00
4795;DHT22;2411;47.060;15.064;2023-06-26T12:42:28;30.10;1.00
4795;DHT22;2411;47.060;15.064;2023-06-26T12:44:55;29.80;1.00
4795;DHT22;2411;47.060;15.064;2023-06-26T12:47:26;29.90;1.00
4795;DHT22;2411;47.060;15.064;2023-06-26T12:49:54;30.10;1.00
4795;DHT22;2411;47.060;15.064;2023-06-26T12:52:22;29.50;1.00
4795;DHT22;2411;47.060;15.064;2023-06-26T12:54:53;29.80;1.00
4795;DHT22;2411;47.060;15.064;2023-06-26T12:57:21;29.70;1.00
4795;DHT22;2411;47.060;15.064;2023-06-26T12:59:49;29.60;1.00
4795;DHT22;2411;47.060;15.064;2023-06-26T13:02:16;29.40;1.00
4795;DHT22;2411;47.060;15.064;2023-06-26T13:04:44;29.20;1.00
4795;DHT22;2411;47.060;15.064;2023-06-26T13:07:12;29.00;1.00
4795;DHT22;2411;47.060;15.064;2023-06-26T13:09:39;29.00;1.00
4795;DHT22;2411;47.060;15.064;2023-06-26T13:12:08;29.10;1.00
4795;DHT22;2411;47.060;15.064;2023-06-26T13:14:36;29.20;1.00
4795;DHT22;2411;47.060;15.064;2023-06-26T13:17:03;29.50;1.00
4795;DHT22;2411;47.060;15.064;2023-06-26T13:19:35;29.90;1.00
4795;DHT22;2411;47.060;15.064;2023-06-26T13:22:03;30.10;1.00
4795;DHT22;2411;47.060;15.064;2023-06-26T13:24:30;30.20;1.00
4795;DHT22;2411;47.060;15.064;2023-06-26T13:26:57;30.40;1.00
4795;DHT22;2411;47.060;15.064;2023-06-26T13:29:25;30.30;1.00
4795;DHT22;2411;47.060;15.064;2023-06-26T13:31:52;30.50;1.00
4795;DHT22;2411;47.060;15.064;2023-06-26T13:34:24;30.40;1.00
4795;DHT22;2411;47.060;15.064;2023-06-26T13:36:55;30.10;1.00
4795;DHT22;2411;47.060;15.064;2023-06-26T13:39:23;30.10;1.00
4795;DHT22;2411;47.060;15.064;2023-06-26T13:41:50;30.10;1.00
4795;DHT22;2411;47.060;15.064;2023-06-26T13:44:17;30.20;1.00
4795;DHT22;2411;47.060;15.064;2023-06-26T13:47:05;30.40;1.00
4795;DHT22;2411;47.060;15.064;2023-06-26T13:49:34;30.60;1.00
4795;DHT22;2411;47.060;15.064;2023-06-26T13:52:01;30.70;1.00
4795;DHT22;2411;47.060;15.064;2023-06-26T13:54:28;30.70;1.00
4795;DHT22;2411;47.060;15.064;2023-06-26T13:56:56;30.40;1.00
4795;DHT22;2411;47.060;15.064;2023-06-26T13:59:24;30.50;1.00
4795;DHT22;2411;47.060;15.064;2023-06-26T14:01:54;30.50;1.00
4795;DHT22;2411;47.060;15.064;2023-06-26T14:04:21;30.70;1.00
4795;DHT22;2411;47.060;15.064;2023-06-26T14:06:49;30.50;1.00
4795;DHT22;2411;47.060;15.064;2023-06-26T14:09:16;30.20;1.00
4795;DHT22;2411;47.060;15.064;2023-06-26T14:11:44;30.50;1.00
4795;DHT22;2411;47.060;15.064;2023-06-26T14:14:12;30.60;1.00
4795;DHT22;2411;47.060;15.064;2023-06-26T14:16:39;30.70;1.00
4795;DHT22;2411;47.060;15.064;2023-06-26T14:19:09;30.50;1.00
4795;DHT22;2411;47.060;15.064;2023-06-26T14:21:42;30.40;1.00
4795;DHT22;2411;47.060;15.064;2023-06-26T14:24:09;30.40;1.00
4795;DHT22;2411;47.060;15.064;2023-06-26T14:26:37;30.10;1.00
4795;DHT22;2411;47.060;15.064;2023-06-26T14:29:06;30.20;1.00
4795;DHT22;2411;47.060;15.064;2023-06-26T14:31:33;30.30;1.00
4795;DHT22;2411;47.060;15.064;2023-06-26T14:34:01;30.30;1.00
4795;DHT22;2411;47.060;15.064;2023-06-26T14:36:30;30.20;1.00
4795;DHT22;2411;47.060;15.064;2023-06-26T14:39:00;30.00;1.00
4795;DHT22;2411;47.060;15.064;2023-06-26T14:41:29;30.10;1.00
4795;DHT22;2411;47.060;15.064;2023-06-26T14:43:57;30.10;1.00
4795;DHT22;2411;47.060;15.064;2023-06-26T14:46:24;29.80;1.00
4795;DHT22;2411;47.060;15.064;2023-06-26T14:48:52;29.80;1.00
4795;DHT22;2411;47.060;15.064;2023-06-26T14:51:22;30.10;1.00
4795;DHT22;2411;47.060;15.064;2023-06-26T14:53:50;30.00;1.00
4795;DHT22;2411;47.060;15.064;2023-06-26T14:56:17;29.80;1.00
4795;DHT22;2411;47.060;15.064;2023-06-26T14:58:44;29.60;1.00
4795;DHT22;2411;47.060;15.064;2023-06-26T15:01:14;29.30;1.00
4795;DHT22;2411;47.060;15.064;2023-06-26T15:03:42;29.30;1.00
4795;DHT22;2411;47.060;15.064;2023-06-26T15:06:10;29.50;1.00
4795;DHT22;2411;47.060;15.064;2023-06-26T15:08:37;29.80;1.00
4795;DHT22;2411;47.060;15.064;2023-06-26T15:11:05;29.40;1.00
4795;DHT22;2411;47.060;15.064;2023-06-26T15:13:33;29.00;1.00
4795;DHT22;2411;47.060;15.064;2023-06-26T15:16:00;28.70;1.00
4795;DHT22;2411;47.060;15.064;2023-06-26T15:18:27;28.30;1.00
4795;DHT22;2411;47.060;15.064;2023-06-26T15:20:55;28.00;1.00
4795;DHT22;2411;47.060;15.064;2023-06-26T15:23:22;27.90;1.00
4795;DHT22;2411;47.060;15.064;2023-06-26T15:25:49;27.80;1.00
4795;DHT22;2411;47.060;15.064;2023-06-26T15:28:17;27.80;1.00
4795;DHT22;2411;47.060;15.064;2023-06-26T15:30:45;27.90;1.00
4795;DHT22;2411;47.060;15.064;2023-06-26T15:33:13;28.10;1.00
4795;DHT22;2411;47.060;15.064;2023-06-26T15:35:41;28.00;1.00
4795;DHT22;2411;47.060;15.064;2023-06-26T15:38:08;27.80;1.00
4795;DHT22;2411;47.060;15.064;2023-06-26T15:40:35;27.80;1.00
4795;DHT22;2411;47.060;15.064;2023-06-26T15:43:03;28.10;1.00
4795;DHT22;2411;47.060;15.064;2023-06-26T15:45:30;28.40;1.00
4795;DHT22;2411;47.060;15.064;2023-06-26T15:47:58;28.20;1.00
4795;DHT22;2411;47.060;15.064;2023-06-26T15:50:25;28.10;1.00
4795;DHT22;2411;47.060;15.064;2023-06-26T15:52:55;28.30;1.00
4795;DHT22;2411;47.060;15.064;2023-06-26T15:55:22;28.20;1.00
4795;DHT22;2411;47.060;15.064;2023-06-26T15:57:49;28.20;1.00
4795;DHT22;2411;47.060;15.064;2023-06-26T16:00:17;28.10;1.00
4795;DHT22;2411;47.060;15.064;2023-06-26T16:02:45;28.30;1.00
4795;DHT22;2411;47.060;15.064;2023-06-26T16:05:12;29.00;1.00
4795;DHT22;2411;47.060;15.064;2023-06-26T16:07:39;29.80;1.00
4795;DHT22;2411;47.060;15.064;2023-06-26T16:10:23;30.60;1.00
4795;DHT22;2411;47.060;15.064;2023-06-26T16:12:51;31.30;1.00
4795;DHT22;2411;47.060;15.064;2023-06-26T16:15:18;32.00;1.00
4795;DHT22;2411;47.060;15.064;2023-06-26T16:17:46;32.20;2.60
4795;DHT22;2411;47.060;15.064;2023-06-26T16:20:13;32.30;3.80
4795;DHT22;2411;47.060;15.064;2023-06-26T16:22:41;32.30;1.30
4795;DHT22;2411;47.060;15.064;2023-06-26T16:25:08;32.40;2.50
4795;DHT22;2411;47.060;15.064;2023-06-26T16:27:36;32.50;2.20
4795;DHT22;2411;47.060;15.064;2023-06-26T16:30:03;32.30;1.70